Needham Market, United Kingdom
Current Conditions -  °F | °C
As of 12:50 PM on Sunday 23 Nov 2014 (Local Time) from EGUW Reporting Station
Moderate Rain Moderate Rain  
Wind Chill: 40°   Ceiling: 400
Heat Index: 46°   Visibility: 6mi
Dew Point: 45°   Wind: 15mph
Humidity: 93%   Direction: 330°NNW
Pressure: 29.97"   Gusts: NA
Location:  52.16°N, 1.05°E
Report Text: EGUW 231250Z AUTO 33013KT 9000 RA BKN004/// SCT034/// 08/07 Q1015
Loading
Personal Weather Stations






























Interactive Weather Map New forecast layout! Learn more

10-Day Weather Forecast

Advertisements
Track Severe Weather on mobile